Time;durP1;ratioP1;P1;durP2;ratioP2;P2;SDS_P1;SDS_P2;PMS_P1;PMS_P2;Temp;Humidity;BMP_temperature;BMP_pressure;BME280_temperature;BME280_humidity;BME280_pressure;Samples;Min_cycle;Max_cycle;Signal;HPM_P1;HPM_P2
2022/02/26 00:00:23;;;;;;;29.50;10.90;;;;;0.90;102746.00;;;;10471666;28;20203;-78
2022/02/26 00:05:24;;;;;;;27.03;11.00;;;;;0.90;102735.00;;;;10502723;28;20201;-79
2022/02/26 00:10:26;;;;;;;30.97;10.40;;;;;0.90;102732.00;;;;10505670;28;20201;-78
2022/02/26 00:15:28;;;;;;;26.00;9.90;;;;;0.90;102736.00;;;;10496695;28;20200;-78
2022/02/26 00:20:31;;;;;;;29.50;10.03;;;;;0.90;102733.00;;;;10512809;28;20284;-80
2022/02/26 00:25:33;;;;;;;31.37;10.30;;;;;0.90;102739.00;;;;10511854;28;20219;-78
2022/02/26 00:30:35;;;;;;;27.60;11.93;;;;;1.00;102744.00;;;;10514246;28;20189;-78
2022/02/26 00:35:37;;;;;;;25.37;11.37;;;;;1.00;102745.00;;;;10514156;28;20216;-79
2022/02/26 00:40:39;;;;;;;29.63;11.67;;;;;1.00;102752.00;;;;10492164;28;20193;-79
2022/02/26 00:45:41;;;;;;;32.47;12.93;;;;;1.00;102752.00;;;;10529293;28;20231;-79
2022/02/26 00:50:43;;;;;;;36.67;13.10;;;;;1.00;102755.00;;;;10523696;28;20190;-78
2022/02/26 00:55:45;;;;;;;23.83;12.27;;;;;1.00;102763.00;;;;10493190;28;20212;-78
2022/02/26 01:00:47;;;;;;;38.47;13.97;;;;;1.00;102767.00;;;;10496508;28;20193;-79
2022/02/26 01:05:49;;;;;;;31.83;14.10;;;;;0.90;102763.00;;;;10464533;28;20670;-79
2022/02/26 01:10:51;;;;;;;35.43;13.63;;;;;0.80;102772.00;;;;10475600;28;20194;-79
2022/02/26 01:15:54;;;;;;;31.57;13.77;;;;;0.70;102775.00;;;;10439101;28;20186;-79
2022/02/26 01:20:56;;;;;;;33.67;13.50;;;;;0.60;102768.00;;;;10531508;28;20222;-80
2022/02/26 01:25:58;;;;;;;31.30;13.40;;;;;0.60;102769.00;;;;10504450;28;20205;-79
2022/02/26 01:31:04;;;;;;;26.10;11.70;;;;;0.60;102764.00;;;;10479025;28;20200;-79
2022/02/26 01:36:07;;;;;;;29.90;13.20;;;;;0.60;102766.00;;;;10478387;28;20189;-79
2022/02/26 01:41:09;;;;;;;31.77;12.70;;;;;0.60;102764.00;;;;10485448;28;20209;-79
2022/02/26 01:46:13;;;;;;;32.77;11.80;;;;;0.60;102753.00;;;;10513764;28;20687;-79
2022/02/26 01:51:15;;;;;;;35.10;14.53;;;;;0.60;102750.00;;;;10518322;28;20203;-79
2022/02/26 01:56:17;;;;;;;27.27;12.27;;;;;0.40;102737.00;;;;10470345;28;20198;-79
2022/02/26 02:01:19;;;;;;;23.70;11.30;;;;;0.20;102724.00;;;;10460660;28;20256;-79
2022/02/26 02:06:21;;;;;;;29.07;12.10;;;;;0.00;102728.00;;;;10512451;28;20197;-79
2022/02/26 02:11:24;;;;;;;27.10;11.47;;;;;-0.10;102742.00;;;;10489490;28;20348;-79
2022/02/26 02:16:26;;;;;;;29.80;11.60;;;;;-0.20;102735.00;;;;10479169;28;20196;-79
2022/02/26 02:21:28;;;;;;;27.57;10.73;;;;;-0.30;102751.00;;;;10521211;28;20240;-79
2022/02/26 02:26:32;;;;;;;27.90;10.80;;;;;-0.40;102740.00;;;;10486122;28;20197;-79
2022/02/26 02:31:34;;;;;;;26.80;9.00;;;;;-0.40;102753.00;;;;10437325;28;20563;-79
2022/02/26 02:36:43;;;;;;;22.47;10.70;;;;;-0.30;102746.00;;;;10486411;28;20725;-79
2022/02/26 02:41:45;;;;;;;22.60;10.77;;;;;-0.40;102756.00;;;;10527196;28;20236;-79
2022/02/26 02:46:47;;;;;;;29.20;10.93;;;;;-0.40;102759.00;;;;10508156;28;20212;-78
2022/02/26 02:51:51;;;;;;;30.07;11.13;;;;;-0.50;102770.00;;;;10451300;28;20277;-79
2022/02/26 02:56:53;;;;;;;28.23;10.63;;;;;-0.50;102764.00;;;;10488271;28;20189;-79
2022/02/26 03:01:55;;;;;;;30.30;11.93;;;;;-0.60;102748.00;;;;10463059;28;20237;-79
2022/02/26 03:07:00;;;;;;;30.37;11.87;;;;;-0.60;102753.00;;;;10480549;28;20193;-79
2022/02/26 03:12:02;;;;;;;33.30;13.07;;;;;-0.70;102761.00;;;;10478922;28;20204;-79
2022/02/26 03:17:05;;;;;;;20.73;10.87;;;;;-0.70;102758.00;;;;10464275;28;20193;-79
2022/02/26 03:22:07;;;;;;;32.33;10.73;;;;;-0.80;102768.00;;;;10522253;28;20216;-79
2022/02/26 03:27:11;;;;;;;25.80;9.87;;;;;-1.00;102766.00;;;;10485118;28;20200;-79
2022/02/26 03:32:13;;;;;;;17.57;8.73;;;;;-1.00;102769.00;;;;10525637;28;20238;-79
2022/02/26 03:37:15;;;;;;;31.07;11.37;;;;;-1.10;102777.00;;;;10482762;28;20244;-78
2022/02/26 03:42:17;;;;;;;25.87;10.03;;;;;-1.10;102778.00;;;;10483273;28;20213;-79
2022/02/26 03:47:20;;;;;;;26.93;9.13;;;;;-1.20;102799.00;;;;10477781;28;20205;-79
2022/02/26 03:52:25;;;;;;;24.67;9.67;;;;;-1.20;102800.00;;;;10479207;28;20193;-80
2022/02/26 03:57:27;;;;;;;25.73;9.13;;;;;-1.20;102814.00;;;;10477394;28;20192;-79
2022/02/26 04:02:29;;;;;;;26.20;11.23;;;;;-1.20;102820.00;;;;10491847;28;20262;-79
2022/02/26 04:07:31;;;;;;;21.87;9.43;;;;;-1.30;102820.00;;;;10491050;28;20189;-79
2022/02/26 04:12:33;;;;;;;21.93;8.83;;;;;-1.30;102825.00;;;;10508187;28;20268;-79
2022/02/26 04:17:35;;;;;;;35.30;9.47;;;;;-1.40;102833.00;;;;10491022;28;20521;-79
2022/02/26 04:22:37;;;;;;;23.37;10.73;;;;;-1.40;102828.00;;;;10494717;28;20213;-79
2022/02/26 04:27:39;;;;;;;22.10;10.37;;;;;-1.40;102834.00;;;;10465643;28;20236;-79
2022/02/26 04:32:42;;;;;;;25.30;10.07;;;;;-1.40;102844.00;;;;10482893;28;20550;-79
2022/02/26 04:37:44;;;;;;;20.17;9.37;;;;;-1.40;102849.00;;;;10497322;28;20204;-79
2022/02/26 04:42:46;;;;;;;26.70;9.00;;;;;-1.40;102863.00;;;;10503204;28;20209;-79
2022/02/26 04:47:48;;;;;;;25.90;9.93;;;;;-1.40;102859.00;;;;10459271;28;20197;-79
2022/02/26 04:52:50;;;;;;;30.87;11.07;;;;;-1.40;102866.00;;;;10470641;28;20182;-79
2022/02/26 04:57:52;;;;;;;28.73;10.37;;;;;-1.40;102872.00;;;;10455014;28;20644;-79
2022/02/26 05:02:54;;;;;;;21.53;8.53;;;;;-1.40;102868.00;;;;10513841;28;20299;-79
2022/02/26 05:07:56;;;;;;;24.87;9.13;;;;;-1.50;102863.00;;;;10472648;28;20667;-79
2022/02/26 05:12:58;;;;;;;30.33;9.23;;;;;-1.50;102846.00;;;;10443140;28;20185;-78
2022/02/26 05:18:00;;;;;;;20.07;8.93;;;;;-1.50;102847.00;;;;10472045;28;20228;-79
2022/02/26 05:23:02;;;;;;;23.10;9.83;;;;;-1.60;102848.00;;;;10508543;28;20745;-79
2022/02/26 05:28:04;;;;;;;27.13;10.13;;;;;-1.60;102850.00;;;;10513263;28;20662;-79
2022/02/26 05:33:06;;;;;;;30.33;10.73;;;;;-1.60;102837.00;;;;10469538;28;20214;-79
2022/02/26 05:38:08;;;;;;;25.53;9.83;;;;;-1.50;102842.00;;;;10511096;27;20300;-79
2022/02/26 05:43:10;;;;;;;26.00;10.00;;;;;-1.60;102844.00;;;;10493540;28;20220;-79
2022/02/26 05:48:12;;;;;;;30.70;9.87;;;;;-1.60;102845.00;;;;10529624;28;20241;-79
2022/02/26 05:53:14;;;;;;;27.17;11.83;;;;;-1.60;102846.00;;;;10494547;28;20246;-79
2022/02/26 05:58:16;;;;;;;21.47;8.97;;;;;-1.60;102862.00;;;;10471280;28;20252;-79
2022/02/26 06:03:18;;;;;;;21.43;9.03;;;;;-1.60;102853.00;;;;10490530;28;20234;-79
2022/02/26 06:08:20;;;;;;;19.30;8.30;;;;;-1.60;102869.00;;;;10536652;28;20717;-79
2022/02/26 06:13:22;;;;;;;20.23;9.73;;;;;-1.60;102869.00;;;;10463877;28;20246;-79
2022/02/26 06:18:24;;;;;;;19.67;9.57;;;;;-1.60;102878.00;;;;10469763;28;20537;-79
2022/02/26 06:23:27;;;;;;;18.57;8.47;;;;;-1.60;102875.00;;;;10470054;28;20252;-79
2022/02/26 06:28:29;;;;;;;29.63;10.27;;;;;-1.60;102879.00;;;;10468596;28;20311;-79
2022/02/26 06:33:31;;;;;;;24.80;9.67;;;;;-1.50;102881.00;;;;10470693;28;20197;-79
2022/02/26 06:38:32;;;;;;;26.17;10.00;;;;;-1.50;102891.00;;;;10493721;28;20255;-80
2022/02/26 06:43:34;;;;;;;29.37;9.10;;;;;-1.40;102896.00;;;;10510437;28;20568;-79
2022/02/26 06:48:37;;;;;;;29.83;9.50;;;;;-1.30;102903.00;;;;10493369;28;20231;-79
2022/02/26 06:53:39;;;;;;;26.90;9.67;;;;;-1.10;102889.00;;;;10468870;28;20595;-79
2022/02/26 06:58:41;;;;;;;21.60;9.63;;;;;-1.00;102903.00;;;;10488990;28;20201;-79
2022/02/26 07:03:43;;;;;;;18.47;9.43;;;;;-0.80;102903.00;;;;10488236;28;20320;-79
2022/02/26 07:08:45;;;;;;;29.93;10.13;;;;;-0.60;102909.00;;;;10492413;28;20197;-79
2022/02/26 07:13:47;;;;;;;22.93;10.97;;;;;-0.40;102905.00;;;;10492597;28;20239;-79
2022/02/26 07:18:50;;;;;;;23.90;10.43;;;;;-0.10;102914.00;;;;10467614;28;20221;-80
2022/02/26 07:23:53;;;;;;;26.47;11.13;;;;;0.20;102925.00;;;;10484040;28;20213;-80
2022/02/26 07:28:56;;;;;;;28.93;9.93;;;;;0.50;102934.00;;;;10494425;28;20670;-80
2022/02/26 07:33:58;;;;;;;28.27;11.53;;;;;0.80;102940.00;;;;10468396;28;20181;-80
2022/02/26 07:39:00;;;;;;;33.10;11.63;;;;;1.10;102947.00;;;;10517038;28;20236;-80
2022/02/26 07:44:04;;;;;;;32.20;12.03;;;;;1.40;102952.00;;;;10509122;28;20555;-80
2022/02/26 07:49:06;;;;;;;33.40;11.53;;;;;1.60;102959.00;;;;10474997;28;20196;-80
2022/02/26 07:54:08;;;;;;;26.97;12.27;;;;;2.00;102967.00;;;;10515557;28;20220;-80
2022/02/26 07:59:10;;;;;;;26.07;12.73;;;;;2.30;102954.00;;;;10519054;28;20201;-80
2022/02/26 08:04:11;;;;;;;33.97;11.23;;;;;2.60;102958.00;;;;10474578;28;20339;-80
2022/02/26 08:09:14;;;;;;;26.27;11.40;;;;;2.70;102957.00;;;;10472703;28;20184;-80
2022/02/26 08:14:16;;;;;;;28.23;12.17;;;;;3.00;102962.00;;;;10491306;28;20188;-80
2022/02/26 08:19:18;;;;;;;34.27;13.03;;;;;3.40;102972.00;;;;10480941;28;20198;-80
2022/02/26 08:24:21;;;;;;;37.90;13.77;;;;;3.60;102974.00;;;;10463729;28;20210;-80
2022/02/26 08:29:23;;;;;;;33.70;12.90;;;;;3.70;102987.00;;;;10466992;28;20691;-80
2022/02/26 08:34:27;;;;;;;35.83;13.60;;;;;4.20;102988.00;;;;10454922;28;20229;-79
2022/02/26 08:39:30;;;;;;;28.07;13.43;;;;;4.90;102989.00;;;;10457786;28;20595;-79
2022/02/26 08:44:33;;;;;;;24.00;13.43;;;;;5.60;102987.00;;;;10478414;28;20266;-79
2022/02/26 08:49:37;;;;;;;17.27;8.73;;;;;6.00;102999.00;;;;10496441;28;20193;-79
2022/02/26 08:54:39;;;;;;;25.47;9.80;;;;;6.30;103009.00;;;;10476875;28;20281;-79
2022/02/26 08:59:41;;;;;;;20.03;8.87;;;;;6.40;103012.00;;;;10481519;28;20614;-79
2022/02/26 09:04:43;;;;;;;31.20;12.77;;;;;6.50;103017.00;;;;10494346;28;20239;-79
2022/02/26 09:09:45;;;;;;;27.53;13.03;;;;;6.60;103022.00;;;;10494614;28;20355;-79
2022/02/26 09:14:47;;;;;;;22.23;11.30;;;;;6.80;103018.00;;;;10489992;28;20304;-79
2022/02/26 09:19:49;;;;;;;30.43;13.33;;;;;7.00;103008.00;;;;10508778;28;20244;-79
2022/02/26 09:24:51;;;;;;;32.17;12.40;;;;;7.10;103019.00;;;;10477281;28;20220;-79
2022/02/26 09:29:55;;;;;;;22.00;11.10;;;;;7.30;103026.00;;;;10527285;28;20200;-79
2022/02/26 09:34:57;;;;;;;24.60;11.50;;;;;7.60;103030.00;;;;10514401;28;20242;-79
2022/02/26 09:39:59;;;;;;;24.43;10.67;;;;;7.80;103036.00;;;;10464650;27;20205;-79
2022/02/26 09:45:03;;;;;;;25.87;10.53;;;;;8.00;103036.00;;;;10485649;27;20221;-79
2022/02/26 09:50:06;;;;;;;22.13;11.03;;;;;8.20;103039.00;;;;10513147;27;20197;-78
2022/02/26 09:55:08;;;;;;;25.07;11.40;;;;;8.40;103041.00;;;;10494269;27;20270;-79
2022/02/26 10:00:11;;;;;;;21.93;10.57;;;;;8.40;103040.00;;;;10477132;28;20196;-78
2022/02/26 10:05:18;;;;;;;22.53;10.70;;;;;8.60;103047.00;;;;10502199;28;20795;-78
2022/02/26 10:10:33;;;;;;;21.13;10.70;;;;;8.80;103053.00;;;;10474798;27;20751;-78
2022/02/26 10:15:40;;;;;;;21.33;10.90;;;;;8.90;103048.00;;;;10519865;27;20200;-79
2022/02/26 10:20:48;;;;;;;23.07;10.30;;;;;9.00;103042.00;;;;10494901;27;20280;-79
2022/02/26 10:25:51;;;;;;;16.73;9.67;;;;;9.30;103043.00;;;;10522609;28;20228;-79
2022/02/26 10:30:53;;;;;;;24.47;10.10;;;;;9.60;103038.00;;;;10496572;27;20198;-78
2022/02/26 10:35:59;;;;;;;15.67;7.13;;;;;9.60;103040.00;;;;10504457;28;20204;-79
2022/02/26 10:41:07;;;;;;;19.07;8.03;;;;;9.90;103041.00;;;;10499515;28;20205;-78
2022/02/26 10:46:30;;;;;;;15.57;7.53;;;;;10.20;103042.00;;;;10459564;28;20578;-79
2022/02/26 10:51:37;;;;;;;16.20;7.70;;;;;10.40;103038.00;;;;10499646;27;20197;-80
2022/02/26 10:56:41;;;;;;;13.97;6.90;;;;;10.50;103043.00;;;;10505381;28;20236;-79
2022/02/26 11:01:58;;;;;;;17.47;5.77;;;;;10.70;103033.00;;;;10489352;28;20588;-79
2022/02/26 11:07:04;;;;;;;12.73;5.90;;;;;10.90;103033.00;;;;10493207;28;20282;-79
2022/02/26 11:12:10;;;;;;;11.97;5.00;;;;;10.90;103027.00;;;;10506200;27;20215;-79
2022/02/26 11:17:13;;;;;;;9.70;4.30;;;;;11.00;103014.00;;;;10523012;27;20200;-79
2022/02/26 11:22:17;;;;;;;10.73;5.00;;;;;11.20;103012.00;;;;10496037;28;20267;-79
2022/02/26 11:27:24;;;;;;;9.27;3.70;;;;;11.20;103011.00;;;;10502522;28;20221;-79
2022/02/26 11:32:30;;;;;;;12.90;3.80;;;;;11.30;103009.00;;;;10463786;28;20216;-79
2022/02/26 11:37:37;;;;;;;11.90;4.00;;;;;11.40;103015.00;;;;10498035;28;20223;-79
2022/02/26 11:42:40;;;;;;;9.37;3.40;;;;;11.40;103019.00;;;;10489738;28;20262;-79
2022/02/26 11:48:01;;;;;;;12.50;4.23;;;;;10.70;103009.00;;;;10486047;28;20311;-79
2022/02/26 11:53:14;;;;;;;11.50;4.07;;;;;11.10;102996.00;;;;10508160;27;20199;-79
2022/02/26 11:58:20;;;;;;;10.07;3.60;;;;;11.50;102987.00;;;;10479351;28;20205;-79
2022/02/26 12:03:31;;;;;;;17.07;4.30;;;;;11.90;102984.00;;;;10476596;28;20225;-79
2022/02/26 12:08:39;;;;;;;8.53;4.10;;;;;11.80;102971.00;;;;10497634;27;20200;-79
2022/02/26 12:13:46;;;;;;;11.07;4.27;;;;;12.00;102966.00;;;;10513862;27;20802;-79
2022/02/26 12:19:02;;;;;;;8.13;3.00;;;;;12.30;102962.00;;;;10462265;28;20205;-79
2022/02/26 12:24:12;;;;;;;8.73;3.27;;;;;12.30;102954.00;;;;10491354;27;20215;-79
2022/02/26 12:29:22;;;;;;;10.63;4.17;;;;;12.40;102939.00;;;;10508068;27;20239;-78
2022/02/26 12:35:03;;;;;;;7.37;3.30;;;;;12.30;102934.00;;;;10490972;27;20201;-79
2022/02/26 12:40:11;;;;;;;7.10;2.93;;;;;12.40;102932.00;;;;10491759;27;20264;-79
2022/02/26 12:45:14;;;;;;;9.53;4.13;;;;;12.40;102912.00;;;;10501349;27;20232;-79
2022/02/26 12:50:17;;;;;;;9.77;3.17;;;;;12.50;102901.00;;;;10473796;28;20656;-79
2022/02/26 12:55:19;;;;;;;4.70;2.13;;;;;12.60;102907.00;;;;10486805;28;20213;-79
2022/02/26 13:00:25;;;;;;;6.70;2.90;;;;;12.80;102896.00;;;;10501950;28;20627;-80
2022/02/26 13:05:30;;;;;;;6.20;1.97;;;;;12.90;102882.00;;;;10470662;27;20248;-79
2022/02/26 13:10:38;;;;;;;9.73;2.43;;;;;13.00;102890.00;;;;10493225;28;20200;-79
2022/02/26 13:15:43;;;;;;;5.77;2.20;;;;;13.20;102888.00;;;;10495767;27;20741;-79
2022/02/26 13:20:49;;;;;;;6.03;1.60;;;;;13.00;102868.00;;;;10513939;27;20192;-79
2022/02/26 13:25:54;;;;;;;4.83;1.70;;;;;12.90;102863.00;;;;10515799;28;20212;-80
2022/02/26 13:30:55;;;;;;;7.93;1.90;;;;;12.70;102854.00;;;;10509730;27;20649;-80
2022/02/26 13:36:11;;;;;;;4.93;1.63;;;;;12.30;102829.00;;;;10524941;27;20638;-78
2022/02/26 13:41:13;;;;;;;7.23;2.10;;;;;11.80;102828.00;;;;10473335;27;20746;-79
2022/02/26 13:46:19;;;;;;;7.50;2.07;;;;;11.80;102823.00;;;;10499876;28;20294;-80
2022/02/26 13:51:22;;;;;;;6.43;1.53;;;;;12.10;102816.00;;;;10459840;28;20201;-78
2022/02/26 13:56:28;;;;;;;6.93;2.17;;;;;12.50;102818.00;;;;10484315;28;20201;-79
2022/02/26 14:01:30;;;;;;;8.07;2.60;;;;;12.80;102815.00;;;;10476747;28;20197;-79
2022/02/26 14:06:35;;;;;;;6.23;1.97;;;;;13.30;102808.00;;;;10467969;27;20222;-78
2022/02/26 14:11:36;;;;;;;11.47;2.47;;;;;13.70;102761.00;;;;10461861;28;20205;-79
2022/02/26 14:16:38;;;;;;;5.70;2.30;;;;;15.30;102750.00;;;;10455344;27;20663;-79
2022/02/26 14:21:40;;;;;;;5.63;2.13;;;;;15.30;102749.00;;;;10477736;27;20251;-79
2022/02/26 14:26:47;;;;;;;6.97;2.60;;;;;15.70;102725.00;;;;10491348;28;20216;-78
2022/02/26 14:31:57;;;;;;;8.07;2.80;;;;;15.30;102751.00;;;;10506669;28;20219;-79
2022/02/26 14:37:01;;;;;;;11.70;2.67;;;;;14.40;102728.00;;;;10472708;28;20209;-78
2022/02/26 14:42:08;;;;;;;7.43;2.63;;;;;14.20;102688.00;;;;10482300;28;20292;-78
2022/02/26 14:47:09;;;;;;;9.37;2.77;;;;;15.50;102681.00;;;;10470217;28;20420;-79
2022/02/26 14:52:11;;;;;;;7.87;2.40;;;;;14.70;102717.00;;;;10493633;27;20258;-78
2022/02/26 14:57:14;;;;;;;8.83;3.20;;;;;15.60;102687.00;;;;10510625;27;20857;-80
2022/02/26 15:02:17;;;;;;;8.87;2.73;;;;;15.50;102703.00;;;;10489684;28;20292;-79
2022/02/26 15:07:19;;;;;;;10.83;3.20;;;;;14.10;102672.00;;;;10465753;28;20221;-78
2022/02/26 15:12:28;;;;;;;11.33;3.50;;;;;16.00;102641.00;;;;10465748;28;20288;-79
2022/02/26 15:17:30;;;;;;;9.87;3.37;;;;;17.10;102623.00;;;;10485654;28;20632;-78
2022/02/26 15:22:32;;;;;;;11.20;4.00;;;;;15.70;102685.00;;;;10448290;28;20221;-79
2022/02/26 15:27:33;;;;;;;11.03;3.33;;;;;13.70;102650.00;;;;10448738;28;20229;-79
2022/02/26 15:32:38;;;;;;;7.37;3.23;;;;;15.90;102648.00;;;;10464828;28;20201;-80
2022/02/26 15:37:39;;;;;;;6.43;2.47;;;;;16.40;102647.00;;;;10476902;28;20265;-79
2022/02/26 15:42:41;;;;;;;6.97;3.10;;;;;12.30;102714.00;;;;10482908;28;20223;-77
2022/02/26 15:47:44;;;;;;;7.13;2.53;;;;;10.20;102713.00;;;;10448297;28;20225;-78
2022/02/26 15:52:46;;;;;;;10.97;3.17;;;;;9.50;102711.00;;;;10466499;28;20268;-77
2022/02/26 15:57:48;;;;;;;10.13;3.20;;;;;9.00;102698.00;;;;10482027;28;20205;-77
2022/02/26 16:02:50;;;;;;;9.30;3.00;;;;;8.70;102711.00;;;;10471809;28;20205;-76
2022/02/26 16:07:52;;;;;;;7.80;3.00;;;;;8.40;102694.00;;;;10487026;28;20209;-78
2022/02/26 16:12:54;;;;;;;9.23;3.13;;;;;8.10;102699.00;;;;10522886;28;20204;-78
2022/02/26 16:17:56;;;;;;;7.93;2.70;;;;;7.90;102702.00;;;;10488104;28;20226;-78
2022/02/26 16:22:58;;;;;;;7.73;2.47;;;;;7.70;102693.00;;;;10489163;28;20212;-78
2022/02/26 16:28:00;;;;;;;8.47;3.10;;;;;7.50;102698.00;;;;10473078;28;20227;-78
2022/02/26 16:33:03;;;;;;;8.97;3.13;;;;;7.40;102690.00;;;;10506131;28;20196;-77
2022/02/26 16:38:05;;;;;;;8.40;3.70;;;;;7.20;102681.00;;;;10478403;28;20569;-78
2022/02/26 16:43:06;;;;;;;8.90;3.33;;;;;7.10;102690.00;;;;10447993;28;20534;-80
2022/02/26 16:48:09;;;;;;;8.87;2.83;;;;;6.90;102680.00;;;;10464299;28;20217;-78
2022/02/26 16:53:14;;;;;;;8.00;2.90;;;;;6.80;102683.00;;;;10484409;28;20201;-78
2022/02/26 16:58:16;;;;;;;8.13;2.97;;;;;6.60;102683.00;;;;10470867;28;20289;-79
2022/02/26 17:03:18;;;;;;;11.10;3.00;;;;;6.40;102684.00;;;;10487529;28;20182;-78
2022/02/26 17:08:20;;;;;;;8.27;3.00;;;;;6.30;102695.00;;;;10472066;28;20210;-78
2022/02/26 17:13:22;;;;;;;11.00;3.53;;;;;6.10;102685.00;;;;10440876;28;20288;-79
2022/02/26 17:18:24;;;;;;;9.70;3.37;;;;;5.90;102679.00;;;;10438956;28;20197;-79
2022/02/26 17:23:26;;;;;;;7.03;3.27;;;;;5.70;102689.00;;;;10437121;28;20677;-78
2022/02/26 17:28:28;;;;;;;14.10;3.50;;;;;5.50;102696.00;;;;10453689;28;20232;-79
2022/02/26 17:33:30;;;;;;;10.90;3.10;;;;;5.30;102696.00;;;;10454725;28;20247;-78
2022/02/26 17:38:36;;;;;;;13.50;3.57;;;;;5.10;102705.00;;;;10494686;27;20201;-78
2022/02/26 17:43:38;;;;;;;13.37;3.93;;;;;4.90;102708.00;;;;10477890;27;20193;-79
2022/02/26 17:48:40;;;;;;;9.77;3.63;;;;;4.80;102693.00;;;;10493912;27;20288;-78
2022/02/26 17:53:44;;;;;;;11.43;4.17;;;;;4.70;102710.00;;;;10477869;27;20655;-78
2022/02/26 17:58:46;;;;;;;12.60;5.03;;;;;4.60;102700.00;;;;10512050;27;20195;-79
2022/02/26 18:03:49;;;;;;;14.33;4.90;;;;;4.50;102698.00;;;;10478644;27;20201;-78
2022/02/26 18:08:51;;;;;;;17.47;5.87;;;;;4.50;102707.00;;;;10462467;28;20213;-78
2022/02/26 18:13:53;;;;;;;15.03;6.07;;;;;4.40;102709.00;;;;10469872;28;20201;-79
2022/02/26 18:18:55;;;;;;;20.40;6.93;;;;;4.30;102693.00;;;;10486209;28;20193;-77
2022/02/26 18:23:58;;;;;;;13.13;6.20;;;;;4.30;102694.00;;;;10452143;28;20223;-78
2022/02/26 18:29:00;;;;;;;15.07;6.60;;;;;4.20;102695.00;;;;10479006;28;20205;-78
2022/02/26 18:34:02;;;;;;;13.60;5.40;;;;;4.20;102699.00;;;;10458833;28;20197;-78
2022/02/26 18:39:04;;;;;;;11.00;5.83;;;;;4.20;102703.00;;;;10492995;27;20201;-78
2022/02/26 18:44:09;;;;;;;13.37;5.83;;;;;4.10;102694.00;;;;10493232;27;20209;-79
2022/02/26 18:49:14;;;;;;;11.67;5.90;;;;;4.10;102700.00;;;;10496144;27;20193;-79
2022/02/26 18:54:16;;;;;;;9.77;5.30;;;;;4.00;102689.00;;;;10508376;28;20235;-79
2022/02/26 18:59:19;;;;;;;12.73;6.80;;;;;3.90;102681.00;;;;10509110;27;20197;-79
2022/02/26 19:04:21;;;;;;;19.80;6.57;;;;;3.90;102692.00;;;;10466353;28;20228;-79
2022/02/26 19:09:23;;;;;;;12.40;5.87;;;;;3.80;102691.00;;;;10486497;27;20200;-79
2022/02/26 19:14:25;;;;;;;14.93;6.40;;;;;3.70;102690.00;;;;10490856;27;20193;-79
2022/02/26 19:19:27;;;;;;;18.90;7.83;;;;;3.60;102691.00;;;;10474352;27;20200;-79
2022/02/26 19:24:29;;;;;;;20.53;8.30;;;;;3.40;102683.00;;;;10472601;28;20316;-79
2022/02/26 19:29:36;;;;;;;24.83;9.40;;;;;3.30;102682.00;;;;10433371;28;20573;-79
2022/02/26 19:34:38;;;;;;;20.20;8.80;;;;;3.20;102685.00;;;;10476498;28;20621;-79
2022/02/26 19:39:41;;;;;;;18.13;8.57;;;;;3.20;102678.00;;;;10462351;28;20210;-79
2022/02/26 19:44:46;;;;;;;23.30;9.30;;;;;3.10;102683.00;;;;10432644;28;20275;-79
2022/02/26 19:49:52;;;;;;;19.70;9.20;;;;;2.90;102679.00;;;;10449331;28;20552;-79
2022/02/26 19:54:54;;;;;;;20.40;10.30;;;;;2.80;102677.00;;;;10470582;28;20220;-78
2022/02/26 19:59:56;;;;;;;32.03;11.37;;;;;2.70;102681.00;;;;10464711;28;20228;-78
2022/02/26 20:04:59;;;;;;;31.47;12.80;;;;;2.60;102674.00;;;;10433340;28;20217;-79
2022/02/26 20:10:02;;;;;;;20.77;11.53;;;;;2.50;102673.00;;;;10465660;28;20197;-79
2022/02/26 20:15:05;;;;;;;26.83;12.43;;;;;2.50;102662.00;;;;10464880;28;20197;-79
2022/02/26 20:20:08;;;;;;;28.23;11.63;;;;;2.50;102666.00;;;;10464741;28;20885;-78
2022/02/26 20:25:10;;;;;;;27.77;11.13;;;;;2.50;102658.00;;;;10449018;28;20224;-78
2022/02/26 20:30:12;;;;;;;24.40;11.03;;;;;2.50;102671.00;;;;10453467;28;20197;-79
2022/02/26 20:35:14;;;;;;;26.57;10.40;;;;;2.50;102667.00;;;;10455717;28;20206;-79
2022/02/26 20:40:17;;;;;;;19.50;9.63;;;;;2.40;102659.00;;;;10455315;28;20205;-79
2022/02/26 20:45:19;;;;;;;25.93;10.30;;;;;2.30;102657.00;;;;10473724;28;20216;-78
2022/02/26 20:50:21;;;;;;;20.83;10.93;;;;;2.20;102658.00;;;;10455653;28;20189;-79
2022/02/26 20:55:23;;;;;;;19.97;9.30;;;;;2.00;102653.00;;;;10471998;28;20676;-79
2022/02/26 21:00:25;;;;;;;20.80;10.07;;;;;1.80;102644.00;;;;10487896;28;20648;-78
2022/02/26 21:05:27;;;;;;;24.23;10.43;;;;;1.70;102634.00;;;;10476818;27;20262;-79
2022/02/26 21:10:30;;;;;;;23.30;10.57;;;;;1.70;102647.00;;;;10496175;27;20197;-79
2022/02/26 21:15:32;;;;;;;28.47;10.10;;;;;1.70;102652.00;;;;10495889;28;20197;-79
2022/02/26 21:20:37;;;;;;;24.87;11.60;;;;;1.70;102659.00;;;;10495935;27;20656;-78
2022/02/26 21:25:39;;;;;;;23.27;10.17;;;;;1.70;102658.00;;;;10497200;27;20228;-78
2022/02/26 21:30:41;;;;;;;26.07;10.83;;;;;1.70;102656.00;;;;10495176;27;20606;-78
2022/02/26 21:35:43;;;;;;;22.67;9.30;;;;;1.60;102651.00;;;;10471459;28;20197;-78
2022/02/26 21:40:45;;;;;;;26.23;10.00;;;;;1.60;102654.00;;;;10510968;27;20204;-79
2022/02/26 21:45:47;;;;;;;20.20;9.80;;;;;1.70;102648.00;;;;10513695;27;20219;-78
2022/02/26 21:50:49;;;;;;;17.70;8.23;;;;;1.70;102652.00;;;;10491578;27;20197;-78
2022/02/26 21:55:51;;;;;;;24.40;9.17;;;;;1.70;102648.00;;;;10470134;28;20240;-78
2022/02/26 22:00:53;;;;;;;23.93;7.77;;;;;1.80;102642.00;;;;10453369;28;20232;-78
2022/02/26 22:05:55;;;;;;;26.23;8.30;;;;;1.70;102652.00;;;;10491829;28;20248;-79
2022/02/26 22:10:57;;;;;;;24.70;8.30;;;;;1.60;102643.00;;;;10510420;28;20193;-78
2022/02/26 22:16:00;;;;;;;16.93;8.63;;;;;1.60;102643.00;;;;10493114;28;20197;-78
2022/02/26 22:21:02;;;;;;;24.83;9.30;;;;;1.60;102634.00;;;;10492272;28;20743;-78
2022/02/26 22:26:04;;;;;;;25.53;8.83;;;;;1.70;102638.00;;;;10476116;27;20215;-78
2022/02/26 22:31:07;;;;;;;21.73;9.47;;;;;1.70;102632.00;;;;10511228;27;20655;-79
2022/02/26 22:36:11;;;;;;;17.93;8.57;;;;;1.70;102627.00;;;;10476815;28;20201;-78
2022/02/26 22:41:13;;;;;;;23.00;9.43;;;;;1.70;102626.00;;;;10494990;28;20746;-78
2022/02/26 22:46:14;;;;;;;22.23;8.63;;;;;1.60;102615.00;;;;10475263;27;20705;-78
2022/02/26 22:51:16;;;;;;;21.23;8.97;;;;;1.50;102613.00;;;;10474023;27;20200;-78
2022/02/26 22:56:34;;;;;;;18.23;7.80;;;;;1.40;102604.00;;;;10506379;28;20204;-78
2022/02/26 23:01:36;;;;;;;16.67;7.17;;;;;1.30;102598.00;;;;10483388;27;20777;-78
2022/02/26 23:06:38;;;;;;;20.07;8.17;;;;;1.20;102601.00;;;;10480264;28;20221;-78
2022/02/26 23:11:40;;;;;;;19.03;8.27;;;;;1.20;102599.00;;;;10451904;28;20244;-78
2022/02/26 23:16:42;;;;;;;15.10;7.53;;;;;1.30;102596.00;;;;10450334;28;20189;-78
2022/02/26 23:21:44;;;;;;;18.90;7.40;;;;;1.30;102597.00;;;;10466529;28;20354;-78
2022/02/26 23:26:46;;;;;;;14.50;7.80;;;;;1.30;102593.00;;;;10494639;28;20216;-77
2022/02/26 23:31:48;;;;;;;14.60;7.53;;;;;1.30;102599.00;;;;10491222;27;20201;-78
2022/02/26 23:36:50;;;;;;;14.87;6.83;;;;;1.10;102591.00;;;;10489875;28;20219;-78
2022/02/26 23:41:52;;;;;;;16.60;6.93;;;;;1.10;102581.00;;;;10506018;28;20197;-79
2022/02/26 23:46:54;;;;;;;17.90;7.10;;;;;1.00;102574.00;;;;10505928;28;20722;-77
2022/02/26 23:51:56;;;;;;;19.17;6.13;;;;;0.90;102582.00;;;;10490116;28;20300;-77
2022/02/26 23:56:58;;;;;;;11.20;5.10;;;;;0.90;102570.00;;;;10488907;28;20254;-78
